Overton's Hourly Summary for Friday, April 14, 2017
Hour Temp
(f)
RH
(%)
Solar Rad.
(MJ/m2)
Rainfall
(in)
Wind
(mph)
4/14/2017 12:00 AM 62 92 0 0 0
4/14/2017 1:00 AM 61 89 0 0 0
4/14/2017 2:00 AM 62 88 0 0 0.19
4/14/2017 3:00 AM 61 93 0 0 0.05
4/14/2017 4:00 AM 58 97 0 0 0
4/14/2017 5:00 AM 56 98 0 0 0
4/14/2017 6:00 AM 56 98 0 0 0
4/14/2017 7:00 AM 56 98 0.01 0 0
4/14/2017 8:00 AM 57 90 0.27 0 0
4/14/2017 9:00 AM 65 77 1 0 0.85
4/14/2017 10:00 AM 73 59 1.65 0 1.32
4/14/2017 11:00 AM 76 51 2.28 0 3.36
4/14/2017 12:00 PM 78 56 2.57 0 4.68
4/14/2017 1:00 PM 79 49 2.58 0 4.73
4/14/2017 2:00 PM 79 48 2.43 0 5.19
4/14/2017 3:00 PM 80 43 2.52 0 4.62
4/14/2017 4:00 PM 79 45 1.69 0 3.17
4/14/2017 5:00 PM 80 42 1.76 0 3.87
4/14/2017 6:00 PM 80 50 1.52 0 4.35
4/14/2017 7:00 PM 78 53 0.72 0 1.65
4/14/2017 8:00 PM 72 76 0.09 0 0.07
4/14/2017 9:00 PM 66 77 0 0 0
4/14/2017 10:00 PM 65 77 0 0 0.04
4/14/2017 11:00 PM 66 75 0 0 0.05
Data Summary 68 71 21.09 0.00 1.59